sensor_id;sensor_type;location;lat;lon;timestamp;P1;durP1;ratioP1;P2;durP2;ratioP2
68509;SDS011;55512;50.102;19.958;2022-12-10T00:01:07;8.30;;;4.20;;
68509;SDS011;55512;50.102;19.958;2022-12-10T00:03:36;7.50;;;3.80;;
68509;SDS011;55512;50.102;19.958;2022-12-10T00:06:04;8.60;;;4.10;;
68509;SDS011;55512;50.102;19.958;2022-12-10T00:08:32;8.90;;;4.50;;
68509;SDS011;55512;50.102;19.958;2022-12-10T00:10:59;10.50;;;4.50;;
68509;SDS011;55512;50.102;19.958;2022-12-10T00:13:25;8.50;;;4.20;;
68509;SDS011;55512;50.102;19.958;2022-12-10T00:15:50;8.70;;;4.30;;
68509;SDS011;55512;50.102;19.958;2022-12-10T00:18:16;8.20;;;4.30;;
68509;SDS011;55512;50.102;19.958;2022-12-10T00:20:41;8.40;;;4.30;;
68509;SDS011;55512;50.102;19.958;2022-12-10T00:23:07;9.50;;;4.30;;
68509;SDS011;55512;50.102;19.958;2022-12-10T00:25:32;7.80;;;4.40;;
68509;SDS011;55512;50.102;19.958;2022-12-10T00:27:58;7.50;;;4.40;;
68509;SDS011;55512;50.102;19.958;2022-12-10T00:30:24;8.70;;;5.10;;
68509;SDS011;55512;50.102;19.958;2022-12-10T00:32:50;8.40;;;4.40;;
68509;SDS011;55512;50.102;19.958;2022-12-10T00:35:15;9.60;;;4.60;;
68509;SDS011;55512;50.102;19.958;2022-12-10T00:37:41;8.90;;;4.30;;
68509;SDS011;55512;50.102;19.958;2022-12-10T00:40:07;8.80;;;4.00;;
68509;SDS011;55512;50.102;19.958;2022-12-10T00:42:33;9.60;;;4.00;;
68509;SDS011;55512;50.102;19.958;2022-12-10T00:44:59;6.50;;;3.60;;
68509;SDS011;55512;50.102;19.958;2022-12-10T00:47:25;10.60;;;4.20;;
68509;SDS011;55512;50.102;19.958;2022-12-10T00:49:50;9.00;;;4.40;;
68509;SDS011;55512;50.102;19.958;2022-12-10T00:52:15;9.40;;;4.80;;
68509;SDS011;55512;50.102;19.958;2022-12-10T00:54:41;7.60;;;4.40;;
68509;SDS011;55512;50.102;19.958;2022-12-10T00:57:07;8.20;;;4.40;;
68509;SDS011;55512;50.102;19.958;2022-12-10T00:59:32;9.70;;;4.60;;
68509;SDS011;55512;50.102;19.958;2022-12-10T01:01:58;8.20;;;4.50;;
68509;SDS011;55512;50.102;19.958;2022-12-10T01:04:23;10.20;;;4.80;;
68509;SDS011;55512;50.102;19.958;2022-12-10T01:06:51;9.30;;;5.20;;
68509;SDS011;55512;50.102;19.958;2022-12-10T01:09:23;8.50;;;4.30;;
68509;SDS011;55512;50.102;19.958;2022-12-10T01:11:51;8.60;;;4.40;;
68509;SDS011;55512;50.102;19.958;2022-12-10T01:14:21;9.10;;;5.10;;
68509;SDS011;55512;50.102;19.958;2022-12-10T01:16:53;10.60;;;5.20;;
68509;SDS011;55512;50.102;19.958;2022-12-10T01:19:21;8.30;;;4.50;;
68509;SDS011;55512;50.102;19.958;2022-12-10T01:21:51;8.80;;;4.60;;
68509;SDS011;55512;50.102;19.958;2022-12-10T01:24:21;9.30;;;4.80;;
68509;SDS011;55512;50.102;19.958;2022-12-10T01:26:47;9.80;;;4.80;;
68509;SDS011;55512;50.102;19.958;2022-12-10T01:29:13;7.20;;;3.60;;
68509;SDS011;55512;50.102;19.958;2022-12-10T01:31:39;8.10;;;3.90;;
68509;SDS011;55512;50.102;19.958;2022-12-10T01:34:08;8.90;;;4.20;;
68509;SDS011;55512;50.102;19.958;2022-12-10T01:36:42;8.70;;;4.30;;
68509;SDS011;55512;50.102;19.958;2022-12-10T01:39:12;8.30;;;3.70;;
68509;SDS011;55512;50.102;19.958;2022-12-10T01:42:04;6.80;;;2.60;;
68509;SDS011;55512;50.102;19.958;2022-12-10T01:46:56;9.80;;;4.10;;
68509;SDS011;55512;50.102;19.958;2022-12-10T01:49:35;9.10;;;4.70;;
68509;SDS011;55512;50.102;19.958;2022-12-10T01:52:06;8.40;;;4.70;;
68509;SDS011;55512;50.102;19.958;2022-12-10T01:54:45;10.70;;;5.00;;
68509;SDS011;55512;50.102;19.958;2022-12-10T01:57:18;7.80;;;3.70;;
68509;SDS011;55512;50.102;19.958;2022-12-10T01:59:46;8.20;;;4.10;;
68509;SDS011;55512;50.102;19.958;2022-12-10T02:02:23;8.40;;;4.70;;
68509;SDS011;55512;50.102;19.958;2022-12-10T02:07:50;8.60;;;3.20;;
68509;SDS011;55512;50.102;19.958;2022-12-10T02:13:10;8.60;;;4.60;;
68509;SDS011;55512;50.102;19.958;2022-12-10T02:15:52;10.20;;;4.50;;
68509;SDS011;55512;50.102;19.958;2022-12-10T02:18:51;8.30;;;4.00;;
68509;SDS011;55512;50.102;19.958;2022-12-10T02:21:29;9.10;;;4.70;;
68509;SDS011;55512;50.102;19.958;2022-12-10T02:24:05;8.00;;;3.40;;
68509;SDS011;55512;50.102;19.958;2022-12-10T02:26:58;10.00;;;5.00;;
68509;SDS011;55512;50.102;19.958;2022-12-10T02:29:27;8.90;;;4.30;;
68509;SDS011;55512;50.102;19.958;2022-12-10T02:32:00;8.30;;;3.30;;
68509;SDS011;55512;50.102;19.958;2022-12-10T02:34:37;7.20;;;3.80;;
68509;SDS011;55512;50.102;19.958;2022-12-10T02:37:33;9.30;;;3.90;;
68509;SDS011;55512;50.102;19.958;2022-12-10T02:40:05;11.20;;;5.30;;
68509;SDS011;55512;50.102;19.958;2022-12-10T02:42:38;7.80;;;3.50;;
68509;SDS011;55512;50.102;19.958;2022-12-10T02:45:08;10.60;;;5.00;;
68509;SDS011;55512;50.102;19.958;2022-12-10T02:47:35;9.50;;;4.10;;
68509;SDS011;55512;50.102;19.958;2022-12-10T02:50:02;7.40;;;4.10;;
68509;SDS011;55512;50.102;19.958;2022-12-10T02:52:28;8.30;;;4.00;;
68509;SDS011;55512;50.102;19.958;2022-12-10T02:54:54;8.40;;;4.00;;
68509;SDS011;55512;50.102;19.958;2022-12-10T03:05:49;6.70;;;2.60;;
68509;SDS011;55512;50.102;19.958;2022-12-10T03:08:44;9.60;;;5.00;;
68509;SDS011;55512;50.102;19.958;2022-12-10T03:11:14;8.80;;;3.90;;
68509;SDS011;55512;50.102;19.958;2022-12-10T03:13:58;9.00;;;3.60;;
68509;SDS011;55512;50.102;19.958;2022-12-10T03:16:49;9.00;;;3.30;;
68509;SDS011;55512;50.102;19.958;2022-12-10T03:19:23;8.80;;;4.10;;
68509;SDS011;55512;50.102;19.958;2022-12-10T03:21:56;10.10;;;4.50;;
68509;SDS011;55512;50.102;19.958;2022-12-10T03:24:24;7.80;;;3.00;;
68509;SDS011;55512;50.102;19.958;2022-12-10T03:26:52;6.60;;;3.20;;
68509;SDS011;55512;50.102;19.958;2022-12-10T03:29:22;11.20;;;5.10;;
68509;SDS011;55512;50.102;19.958;2022-12-10T03:31:56;9.50;;;5.10;;
68509;SDS011;55512;50.102;19.958;2022-12-10T03:34:23;10.60;;;5.00;;
68509;SDS011;55512;50.102;19.958;2022-12-10T03:36:50;11.20;;;5.20;;
68509;SDS011;55512;50.102;19.958;2022-12-10T03:39:17;9.30;;;4.60;;
68509;SDS011;55512;50.102;19.958;2022-12-10T03:41:42;9.20;;;4.70;;
68509;SDS011;55512;50.102;19.958;2022-12-10T03:44:08;10.20;;;5.50;;
68509;SDS011;55512;50.102;19.958;2022-12-10T03:46:33;8.70;;;4.40;;
68509;SDS011;55512;50.102;19.958;2022-12-10T03:49:00;9.60;;;4.80;;
68509;SDS011;55512;50.102;19.958;2022-12-10T03:51:27;6.60;;;3.00;;
68509;SDS011;55512;50.102;19.958;2022-12-10T03:53:53;9.80;;;5.40;;
68509;SDS011;55512;50.102;19.958;2022-12-10T03:56:20;9.70;;;4.90;;
68509;SDS011;55512;50.102;19.958;2022-12-10T03:58:46;10.10;;;4.80;;
68509;SDS011;55512;50.102;19.958;2022-12-10T04:01:12;13.70;;;7.60;;
68509;SDS011;55512;50.102;19.958;2022-12-10T04:03:40;9.00;;;5.10;;
68509;SDS011;55512;50.102;19.958;2022-12-10T04:06:10;8.50;;;4.30;;
68509;SDS011;55512;50.102;19.958;2022-12-10T04:08:39;9.80;;;4.90;;
68509;SDS011;55512;50.102;19.958;2022-12-10T04:11:06;9.50;;;4.30;;
68509;SDS011;55512;50.102;19.958;2022-12-10T04:13:35;9.90;;;5.10;;
68509;SDS011;55512;50.102;19.958;2022-12-10T04:16:22;9.40;;;4.80;;
68509;SDS011;55512;50.102;19.958;2022-12-10T04:18:56;10.30;;;4.70;;
68509;SDS011;55512;50.102;19.958;2022-12-10T04:21:23;9.10;;;4.30;;
68509;SDS011;55512;50.102;19.958;2022-12-10T04:24:09;9.00;;;4.00;;
68509;SDS011;55512;50.102;19.958;2022-12-10T04:26:56;9.20;;;5.00;;
68509;SDS011;55512;50.102;19.958;2022-12-10T04:29:28;10.50;;;5.20;;
68509;SDS011;55512;50.102;19.958;2022-12-10T04:31:56;10.10;;;4.60;;
68509;SDS011;55512;50.102;19.958;2022-12-10T04:34:23;10.70;;;5.20;;
68509;SDS011;55512;50.102;19.958;2022-12-10T04:36:50;12.10;;;5.80;;
68509;SDS011;55512;50.102;19.958;2022-12-10T04:39:16;11.40;;;6.00;;
68509;SDS011;55512;50.102;19.958;2022-12-10T04:41:44;11.70;;;6.30;;
68509;SDS011;55512;50.102;19.958;2022-12-10T04:44:14;11.80;;;6.50;;
68509;SDS011;55512;50.102;19.958;2022-12-10T04:46:40;11.80;;;6.20;;
68509;SDS011;55512;50.102;19.958;2022-12-10T04:49:06;12.10;;;5.80;;
68509;SDS011;55512;50.102;19.958;2022-12-10T04:51:32;11.80;;;6.20;;
68509;SDS011;55512;50.102;19.958;2022-12-10T04:53:58;11.40;;;6.20;;
68509;SDS011;55512;50.102;19.958;2022-12-10T04:56:24;12.10;;;5.80;;
68509;SDS011;55512;50.102;19.958;2022-12-10T04:58:50;10.80;;;5.30;;
68509;SDS011;55512;50.102;19.958;2022-12-10T05:01:16;12.40;;;6.00;;
68509;SDS011;55512;50.102;19.958;2022-12-10T05:03:44;10.10;;;5.30;;
68509;SDS011;55512;50.102;19.958;2022-12-10T05:06:13;10.10;;;5.20;;
68509;SDS011;55512;50.102;19.958;2022-12-10T05:08:40;10.90;;;5.50;;
68509;SDS011;55512;50.102;19.958;2022-12-10T05:11:10;10.60;;;5.70;;
68509;SDS011;55512;50.102;19.958;2022-12-10T05:13:37;10.60;;;5.60;;
68509;SDS011;55512;50.102;19.958;2022-12-10T05:16:06;11.70;;;5.50;;
68509;SDS011;55512;50.102;19.958;2022-12-10T05:18:35;9.80;;;5.60;;
68509;SDS011;55512;50.102;19.958;2022-12-10T05:21:03;11.50;;;5.60;;
68509;SDS011;55512;50.102;19.958;2022-12-10T05:23:31;11.30;;;5.90;;
68509;SDS011;55512;50.102;19.958;2022-12-10T05:26:08;11.60;;;5.80;;
68509;SDS011;55512;50.102;19.958;2022-12-10T05:28:42;10.50;;;5.30;;
68509;SDS011;55512;50.102;19.958;2022-12-10T05:31:36;11.60;;;5.00;;
68509;SDS011;55512;50.102;19.958;2022-12-10T05:34:02;10.60;;;5.20;;
68509;SDS011;55512;50.102;19.958;2022-12-10T05:36:30;9.40;;;5.40;;
68509;SDS011;55512;50.102;19.958;2022-12-10T05:38:57;12.40;;;5.90;;
68509;SDS011;55512;50.102;19.958;2022-12-10T05:41:25;11.50;;;6.20;;
68509;SDS011;55512;50.102;19.958;2022-12-10T05:43:54;12.40;;;6.10;;
68509;SDS011;55512;50.102;19.958;2022-12-10T05:46:24;12.70;;;6.60;;
68509;SDS011;55512;50.102;19.958;2022-12-10T05:48:52;13.10;;;6.60;;
68509;SDS011;55512;50.102;19.958;2022-12-10T05:51:20;14.30;;;6.30;;
68509;SDS011;55512;50.102;19.958;2022-12-10T05:53:47;13.60;;;7.20;;
68509;SDS011;55512;50.102;19.958;2022-12-10T05:56:16;13.00;;;6.40;;
68509;SDS011;55512;50.102;19.958;2022-12-10T05:58:44;12.00;;;5.60;;
68509;SDS011;55512;50.102;19.958;2022-12-10T06:01:17;9.30;;;4.60;;
68509;SDS011;55512;50.102;19.958;2022-12-10T06:03:44;11.40;;;5.40;;
68509;SDS011;55512;50.102;19.958;2022-12-10T06:06:11;11.60;;;6.20;;
68509;SDS011;55512;50.102;19.958;2022-12-10T06:08:37;11.40;;;5.20;;
68509;SDS011;55512;50.102;19.958;2022-12-10T06:11:07;13.00;;;6.30;;
68509;SDS011;55512;50.102;19.958;2022-12-10T06:13:35;10.80;;;5.20;;
68509;SDS011;55512;50.102;19.958;2022-12-10T06:16:09;12.20;;;5.50;;
68509;SDS011;55512;50.102;19.958;2022-12-10T06:18:36;10.20;;;5.30;;
68509;SDS011;55512;50.102;19.958;2022-12-10T06:21:07;11.20;;;5.40;;
68509;SDS011;55512;50.102;19.958;2022-12-10T06:23:35;7.80;;;3.30;;
68509;SDS011;55512;50.102;19.958;2022-12-10T06:26:07;11.60;;;5.00;;
68509;SDS011;55512;50.102;19.958;2022-12-10T06:28:35;8.60;;;4.10;;
68509;SDS011;55512;50.102;19.958;2022-12-10T06:31:00;10.10;;;5.40;;
68509;SDS011;55512;50.102;19.958;2022-12-10T06:33:26;14.00;;;6.20;;
68509;SDS011;55512;50.102;19.958;2022-12-10T06:35:52;13.90;;;6.50;;
68509;SDS011;55512;50.102;19.958;2022-12-10T06:38:18;12.60;;;6.00;;
68509;SDS011;55512;50.102;19.958;2022-12-10T06:40:43;11.70;;;5.60;;
68509;SDS011;55512;50.102;19.958;2022-12-10T06:43:08;12.40;;;5.80;;
68509;SDS011;55512;50.102;19.958;2022-12-10T06:45:38;11.40;;;5.70;;
68509;SDS011;55512;50.102;19.958;2022-12-10T06:48:05;12.10;;;5.60;;
68509;SDS011;55512;50.102;19.958;2022-12-10T06:50:31;13.10;;;6.10;;
68509;SDS011;55512;50.102;19.958;2022-12-10T06:52:57;12.80;;;6.40;;
68509;SDS011;55512;50.102;19.958;2022-12-10T06:55:22;12.10;;;6.30;;
68509;SDS011;55512;50.102;19.958;2022-12-10T06:57:51;11.20;;;5.80;;
68509;SDS011;55512;50.102;19.958;2022-12-10T07:00:17;13.90;;;6.30;;
68509;SDS011;55512;50.102;19.958;2022-12-10T07:02:43;12.00;;;6.90;;
68509;SDS011;55512;50.102;19.958;2022-12-10T07:05:09;13.50;;;7.20;;
68509;SDS011;55512;50.102;19.958;2022-12-10T07:07:35;12.40;;;6.20;;
68509;SDS011;55512;50.102;19.958;2022-12-10T07:10:02;9.90;;;4.40;;
68509;SDS011;55512;50.102;19.958;2022-12-10T07:12:29;12.80;;;6.00;;
68509;SDS011;55512;50.102;19.958;2022-12-10T07:14:55;14.40;;;6.90;;
68509;SDS011;55512;50.102;19.958;2022-12-10T07:17:20;13.30;;;6.50;;
68509;SDS011;55512;50.102;19.958;2022-12-10T07:19:45;11.90;;;5.80;;
68509;SDS011;55512;50.102;19.958;2022-12-10T07:22:11;8.00;;;2.70;;
68509;SDS011;55512;50.102;19.958;2022-12-10T07:24:36;11.60;;;5.30;;
68509;SDS011;55512;50.102;19.958;2022-12-10T07:27:05;13.90;;;6.60;;
68509;SDS011;55512;50.102;19.958;2022-12-10T07:29:31;13.30;;;6.60;;
68509;SDS011;55512;50.102;19.958;2022-12-10T07:31:56;10.70;;;5.90;;
68509;SDS011;55512;50.102;19.958;2022-12-10T07:34:22;12.20;;;6.40;;
68509;SDS011;55512;50.102;19.958;2022-12-10T07:36:47;14.50;;;6.60;;
68509;SDS011;55512;50.102;19.958;2022-12-10T07:39:14;13.00;;;6.10;;
68509;SDS011;55512;50.102;19.958;2022-12-10T07:41:44;14.70;;;7.40;;
68509;SDS011;55512;50.102;19.958;2022-12-10T07:44:18;13.60;;;6.00;;
68509;SDS011;55512;50.102;19.958;2022-12-10T07:46:46;13.30;;;7.10;;
68509;SDS011;55512;50.102;19.958;2022-12-10T07:49:13;12.90;;;7.10;;
68509;SDS011;55512;50.102;19.958;2022-12-10T07:51:38;14.40;;;6.60;;
68509;SDS011;55512;50.102;19.958;2022-12-10T07:54:04;14.20;;;6.40;;
68509;SDS011;55512;50.102;19.958;2022-12-10T07:56:30;9.70;;;4.60;;
68509;SDS011;55512;50.102;19.958;2022-12-10T07:58:55;12.80;;;5.70;;
68509;SDS011;55512;50.102;19.958;2022-12-10T08:01:23;12.60;;;6.20;;
68509;SDS011;55512;50.102;19.958;2022-12-10T08:03:51;16.40;;;7.60;;
68509;SDS011;55512;50.102;19.958;2022-12-10T08:06:20;13.80;;;6.00;;
68509;SDS011;55512;50.102;19.958;2022-12-10T08:08:47;16.20;;;7.50;;
68509;SDS011;55512;50.102;19.958;2022-12-10T08:11:14;15.60;;;7.40;;
68509;SDS011;55512;50.102;19.958;2022-12-10T08:13:41;14.10;;;5.80;;
68509;SDS011;55512;50.102;19.958;2022-12-10T08:16:11;17.30;;;7.90;;
68509;SDS011;55512;50.102;19.958;2022-12-10T08:18:39;18.50;;;9.60;;
68509;SDS011;55512;50.102;19.958;2022-12-10T08:21:06;18.90;;;9.40;;
68509;SDS011;55512;50.102;19.958;2022-12-10T08:23:33;20.20;;;10.60;;
68509;SDS011;55512;50.102;19.958;2022-12-10T08:26:03;19.90;;;9.60;;
68509;SDS011;55512;50.102;19.958;2022-12-10T08:28:29;17.60;;;9.30;;
68509;SDS011;55512;50.102;19.958;2022-12-10T08:30:55;18.20;;;9.90;;
68509;SDS011;55512;50.102;19.958;2022-12-10T08:33:20;21.40;;;10.10;;
68509;SDS011;55512;50.102;19.958;2022-12-10T08:35:46;21.60;;;9.50;;
68509;SDS011;55512;50.102;19.958;2022-12-10T08:38:11;19.40;;;10.10;;
68509;SDS011;55512;50.102;19.958;2022-12-10T08:40:40;19.60;;;9.90;;
68509;SDS011;55512;50.102;19.958;2022-12-10T08:43:07;19.40;;;9.30;;
68509;SDS011;55512;50.102;19.958;2022-12-10T08:45:33;15.90;;;8.80;;
68509;SDS011;55512;50.102;19.958;2022-12-10T08:48:01;20.40;;;9.80;;
68509;SDS011;55512;50.102;19.958;2022-12-10T08:50:27;17.40;;;9.30;;
68509;SDS011;55512;50.102;19.958;2022-12-10T08:52:53;15.50;;;7.80;;
68509;SDS011;55512;50.102;19.958;2022-12-10T08:55:19;20.80;;;10.60;;
68509;SDS011;55512;50.102;19.958;2022-12-10T08:57:44;18.40;;;9.90;;
68509;SDS011;55512;50.102;19.958;2022-12-10T09:00:11;19.30;;;9.60;;
68509;SDS011;55512;50.102;19.958;2022-12-10T09:02:38;18.10;;;8.50;;
68509;SDS011;55512;50.102;19.958;2022-12-10T09:05:04;12.70;;;6.40;;
68509;SDS011;55512;50.102;19.958;2022-12-10T09:07:30;17.70;;;8.30;;
68509;SDS011;55512;50.102;19.958;2022-12-10T09:09:56;13.60;;;7.00;;
68509;SDS011;55512;50.102;19.958;2022-12-10T09:12:21;19.70;;;9.50;;
68509;SDS011;55512;50.102;19.958;2022-12-10T09:14:46;19.90;;;10.50;;
68509;SDS011;55512;50.102;19.958;2022-12-10T09:17:12;19.40;;;9.60;;
68509;SDS011;55512;50.102;19.958;2022-12-10T09:19:37;21.30;;;10.50;;
68509;SDS011;55512;50.102;19.958;2022-12-10T09:22:03;23.10;;;11.00;;
68509;SDS011;55512;50.102;19.958;2022-12-10T09:24:28;13.70;;;6.70;;
68509;SDS011;55512;50.102;19.958;2022-12-10T09:26:54;18.70;;;9.50;;
68509;SDS011;55512;50.102;19.958;2022-12-10T09:29:19;18.80;;;10.00;;
68509;SDS011;55512;50.102;19.958;2022-12-10T09:31:45;20.50;;;10.70;;
68509;SDS011;55512;50.102;19.958;2022-12-10T09:34:15;14.70;;;6.60;;
68509;SDS011;55512;50.102;19.958;2022-12-10T09:36:40;19.20;;;9.80;;
68509;SDS011;55512;50.102;19.958;2022-12-10T09:39:06;20.40;;;10.60;;
68509;SDS011;55512;50.102;19.958;2022-12-10T09:44:30;19.10;;;10.10;;
68509;SDS011;55512;50.102;19.958;2022-12-10T09:47:07;20.10;;;9.90;;
68509;SDS011;55512;50.102;19.958;2022-12-10T09:52:24;19.70;;;9.20;;
68509;SDS011;55512;50.102;19.958;2022-12-10T09:54:53;21.20;;;11.20;;
68509;SDS011;55512;50.102;19.958;2022-12-10T09:57:30;19.50;;;10.60;;
68509;SDS011;55512;50.102;19.958;2022-12-10T10:00:26;21.30;;;9.50;;
68509;SDS011;55512;50.102;19.958;2022-12-10T10:02:59;23.00;;;11.10;;
68509;SDS011;55512;50.102;19.958;2022-12-10T10:05:35;22.10;;;11.20;;
68509;SDS011;55512;50.102;19.958;2022-12-10T10:08:11;20.90;;;10.70;;
68509;SDS011;55512;50.102;19.958;2022-12-10T10:10:44;22.00;;;10.90;;
68509;SDS011;55512;50.102;19.958;2022-12-10T10:15:45;19.70;;;10.40;;
68509;SDS011;55512;50.102;19.958;2022-12-10T10:18:17;17.30;;;8.50;;
68509;SDS011;55512;50.102;19.958;2022-12-10T10:20:55;16.50;;;8.60;;
68509;SDS011;55512;50.102;19.958;2022-12-10T10:23:21;18.40;;;9.90;;
68509;SDS011;55512;50.102;19.958;2022-12-10T10:25:46;20.30;;;9.40;;
68509;SDS011;55512;50.102;19.958;2022-12-10T10:28:18;17.60;;;9.40;;
68509;SDS011;55512;50.102;19.958;2022-12-10T10:30:45;18.60;;;10.20;;
68509;SDS011;55512;50.102;19.958;2022-12-10T10:33:14;19.30;;;9.20;;
68509;SDS011;55512;50.102;19.958;2022-12-10T10:35:47;19.40;;;10.70;;
68509;SDS011;55512;50.102;19.958;2022-12-10T10:38:24;19.50;;;10.50;;
68509;SDS011;55512;50.102;19.958;2022-12-10T10:41:03;20.30;;;11.10;;
68509;SDS011;55512;50.102;19.958;2022-12-10T10:43:40;8.20;;;3.20;;
68509;SDS011;55512;50.102;19.958;2022-12-10T10:46:17;18.80;;;9.60;;
68509;SDS011;55512;50.102;19.958;2022-12-10T10:48:47;20.40;;;10.60;;
68509;SDS011;55512;50.102;19.958;2022-12-10T10:53:45;18.30;;;9.80;;
68509;SDS011;55512;50.102;19.958;2022-12-10T10:59:07;17.80;;;9.20;;
68509;SDS011;55512;50.102;19.958;2022-12-10T11:01:56;20.40;;;9.60;;
68509;SDS011;55512;50.102;19.958;2022-12-10T11:04:48;12.60;;;5.70;;
68509;SDS011;55512;50.102;19.958;2022-12-10T11:09:56;19.00;;;9.50;;
68509;SDS011;55512;50.102;19.958;2022-12-10T11:14:58;18.60;;;9.60;;
68509;SDS011;55512;50.102;19.958;2022-12-10T11:17:25;15.80;;;9.10;;
68509;SDS011;55512;50.102;19.958;2022-12-10T11:20:02;17.60;;;9.60;;
68509;SDS011;55512;50.102;19.958;2022-12-10T11:22:59;18.40;;;10.40;;
68509;SDS011;55512;50.102;19.958;2022-12-10T11:25:55;19.40;;;10.40;;
68509;SDS011;55512;50.102;19.958;2022-12-10T11:37:32;18.90;;;9.90;;
68509;SDS011;55512;50.102;19.958;2022-12-10T11:48:13;16.90;;;8.20;;
68509;SDS011;55512;50.102;19.958;2022-12-10T11:51:05;17.40;;;8.40;;
68509;SDS011;55512;50.102;19.958;2022-12-10T11:53:55;22.10;;;10.70;;
68509;SDS011;55512;50.102;19.958;2022-12-10T11:56:44;20.50;;;10.70;;
68509;SDS011;55512;50.102;19.958;2022-12-10T11:59:27;13.90;;;5.90;;
68509;SDS011;55512;50.102;19.958;2022-12-10T12:02:19;19.20;;;8.70;;
68509;SDS011;55512;50.102;19.958;2022-12-10T12:05:26;21.40;;;9.40;;
68509;SDS011;55512;50.102;19.958;2022-12-10T12:11:02;26.30;;;12.60;;
68509;SDS011;55512;50.102;19.958;2022-12-10T12:13:41;24.90;;;12.00;;
68509;SDS011;55512;50.102;19.958;2022-12-10T12:16:34;22.30;;;10.40;;
68509;SDS011;55512;50.102;19.958;2022-12-10T12:19:17;23.30;;;10.70;;
68509;SDS011;55512;50.102;19.958;2022-12-10T12:21:49;22.50;;;11.70;;
68509;SDS011;55512;50.102;19.958;2022-12-10T12:24:29;23.00;;;9.40;;
68509;SDS011;55512;50.102;19.958;2022-12-10T12:27:36;23.00;;;11.50;;
68509;SDS011;55512;50.102;19.958;2022-12-10T12:30:12;24.00;;;11.80;;
68509;SDS011;55512;50.102;19.958;2022-12-10T12:35:42;16.90;;;8.40;;
68509;SDS011;55512;50.102;19.958;2022-12-10T12:38:28;23.70;;;10.30;;
68509;SDS011;55512;50.102;19.958;2022-12-10T12:41:14;24.90;;;11.20;;
68509;SDS011;55512;50.102;19.958;2022-12-10T12:46:46;12.50;;;4.40;;
68509;SDS011;55512;50.102;19.958;2022-12-10T12:52:17;27.10;;;11.90;;
68509;SDS011;55512;50.102;19.958;2022-12-10T12:55:02;27.80;;;12.30;;
68509;SDS011;55512;50.102;19.958;2022-12-10T12:57:48;17.10;;;7.50;;
68509;SDS011;55512;50.102;19.958;2022-12-10T13:00:19;18.30;;;7.60;;
68509;SDS011;55512;50.102;19.958;2022-12-10T13:05:51;28.50;;;12.50;;
68509;SDS011;55512;50.102;19.958;2022-12-10T13:10:51;22.30;;;8.80;;
68509;SDS011;55512;50.102;19.958;2022-12-10T13:27:05;30.60;;;13.50;;
68509;SDS011;55512;50.102;19.958;2022-12-10T13:43:29;33.10;;;13.10;;
68509;SDS011;55512;50.102;19.958;2022-12-10T13:49:19;29.20;;;13.90;;
68509;SDS011;55512;50.102;19.958;2022-12-10T13:54:57;37.90;;;15.80;;
68509;SDS011;55512;50.102;19.958;2022-12-10T13:57:45;28.90;;;11.70;;
68509;SDS011;55512;50.102;19.958;2022-12-10T14:00:20;29.60;;;11.90;;
68509;SDS011;55512;50.102;19.958;2022-12-10T14:08:30;33.00;;;11.50;;
68509;SDS011;55512;50.102;19.958;2022-12-10T14:11:02;23.30;;;10.90;;
68509;SDS011;55512;50.102;19.958;2022-12-10T14:13:41;29.10;;;12.20;;
68509;SDS011;55512;50.102;19.958;2022-12-10T14:16:14;31.20;;;13.90;;
68509;SDS011;55512;50.102;19.958;2022-12-10T14:18:49;27.30;;;11.60;;
68509;SDS011;55512;50.102;19.958;2022-12-10T14:21:19;29.00;;;11.70;;
68509;SDS011;55512;50.102;19.958;2022-12-10T14:23:46;28.40;;;12.70;;
68509;SDS011;55512;50.102;19.958;2022-12-10T14:26:17;33.40;;;12.80;;
68509;SDS011;55512;50.102;19.958;2022-12-10T14:28:50;31.10;;;11.90;;
68509;SDS011;55512;50.102;19.958;2022-12-10T14:31:33;33.10;;;12.50;;
68509;SDS011;55512;50.102;19.958;2022-12-10T14:34:06;33.00;;;14.20;;
68509;SDS011;55512;50.102;19.958;2022-12-10T14:36:37;31.40;;;12.50;;
68509;SDS011;55512;50.102;19.958;2022-12-10T14:39:17;27.60;;;10.20;;
68509;SDS011;55512;50.102;19.958;2022-12-10T14:41:47;32.20;;;12.30;;
68509;SDS011;55512;50.102;19.958;2022-12-10T14:44:16;32.80;;;12.80;;
68509;SDS011;55512;50.102;19.958;2022-12-10T14:46:43;27.40;;;11.40;;
68509;SDS011;55512;50.102;19.958;2022-12-10T14:49:25;28.90;;;11.70;;
68509;SDS011;55512;50.102;19.958;2022-12-10T14:51:51;34.40;;;13.70;;
68509;SDS011;55512;50.102;19.958;2022-12-10T14:54:29;32.70;;;13.70;;
68509;SDS011;55512;50.102;19.958;2022-12-10T14:57:00;35.90;;;14.80;;
68509;SDS011;55512;50.102;19.958;2022-12-10T14:59:50;35.50;;;14.20;;
68509;SDS011;55512;50.102;19.958;2022-12-10T15:02:37;32.00;;;12.70;;
68509;SDS011;55512;50.102;19.958;2022-12-10T15:05:13;34.20;;;12.80;;
68509;SDS011;55512;50.102;19.958;2022-12-10T15:07:58;32.70;;;12.10;;
68509;SDS011;55512;50.102;19.958;2022-12-10T15:10:33;35.60;;;12.10;;
68509;SDS011;55512;50.102;19.958;2022-12-10T15:13:02;35.50;;;13.10;;
68509;SDS011;55512;50.102;19.958;2022-12-10T15:15:33;34.40;;;12.40;;
68509;SDS011;55512;50.102;19.958;2022-12-10T15:18:11;35.00;;;13.90;;
68509;SDS011;55512;50.102;19.958;2022-12-10T15:23:23;35.90;;;14.80;;
68509;SDS011;55512;50.102;19.958;2022-12-10T15:28:37;39.50;;;14.80;;
68509;SDS011;55512;50.102;19.958;2022-12-10T15:34:06;33.40;;;13.10;;
68509;SDS011;55512;50.102;19.958;2022-12-10T15:36:35;30.70;;;12.20;;
68509;SDS011;55512;50.102;19.958;2022-12-10T15:39:16;34.60;;;13.00;;
68509;SDS011;55512;50.102;19.958;2022-12-10T15:41:48;36.50;;;14.00;;
68509;SDS011;55512;50.102;19.958;2022-12-10T15:47:13;25.80;;;9.70;;
68509;SDS011;55512;50.102;19.958;2022-12-10T15:49:44;35.00;;;15.30;;
68509;SDS011;55512;50.102;19.958;2022-12-10T15:52:16;40.50;;;14.90;;
68509;SDS011;55512;50.102;19.958;2022-12-10T15:54:47;48.80;;;15.20;;
68509;SDS011;55512;50.102;19.958;2022-12-10T15:57:14;37.50;;;14.30;;
68509;SDS011;55512;50.102;19.958;2022-12-10T15:59:44;35.30;;;13.80;;
68509;SDS011;55512;50.102;19.958;2022-12-10T16:02:45;38.80;;;13.50;;
68509;SDS011;55512;50.102;19.958;2022-12-10T16:05:35;38.70;;;14.20;;
68509;SDS011;55512;50.102;19.958;2022-12-10T16:08:25;31.70;;;12.10;;
68509;SDS011;55512;50.102;19.958;2022-12-10T16:10:56;34.30;;;13.00;;
68509;SDS011;55512;50.102;19.958;2022-12-10T16:13:29;31.10;;;13.20;;
68509;SDS011;55512;50.102;19.958;2022-12-10T16:16:09;30.50;;;13.00;;
68509;SDS011;55512;50.102;19.958;2022-12-10T16:18:35;32.30;;;12.70;;
68509;SDS011;55512;50.102;19.958;2022-12-10T16:21:06;37.00;;;13.90;;
68509;SDS011;55512;50.102;19.958;2022-12-10T16:23:33;31.90;;;13.00;;
68509;SDS011;55512;50.102;19.958;2022-12-10T16:26:00;35.90;;;13.60;;
68509;SDS011;55512;50.102;19.958;2022-12-10T16:28:26;30.40;;;13.20;;
68509;SDS011;55512;50.102;19.958;2022-12-10T16:30:54;31.00;;;11.50;;
68509;SDS011;55512;50.102;19.958;2022-12-10T16:33:23;29.50;;;11.10;;
68509;SDS011;55512;50.102;19.958;2022-12-10T16:35:52;32.60;;;12.70;;
68509;SDS011;55512;50.102;19.958;2022-12-10T16:38:19;31.20;;;12.70;;
68509;SDS011;55512;50.102;19.958;2022-12-10T16:40:46;34.50;;;14.10;;
68509;SDS011;55512;50.102;19.958;2022-12-10T16:43:19;28.40;;;11.70;;
68509;SDS011;55512;50.102;19.958;2022-12-10T16:45:47;29.30;;;12.30;;